Time;durP1;ratioP1;P1;durP2;ratioP2;P2;SDS_P1;SDS_P2;PMS_P1;PMS_P2;Temp;Humidity;BMP_temperature;BMP_pressure;BME280_temperature;BME280_humidity;BME280_pressure;Samples;Min_cycle;Max_cycle;Signal;HPM_P1;HPM_P2
2023/05/26 00:00:26;;;;;;;2.80;1.10;;;14.00;99.90;;;;;;5115351;28;20447;-84
2023/05/26 00:02:53;;;;;;;3.13;1.83;;;13.90;99.90;;;;;;5114890;28;20459;-84
2023/05/26 00:05:20;;;;;;;1.63;1.53;;;13.90;99.90;;;;;;5114445;28;21251;-83
2023/05/26 00:07:48;;;;;;;3.40;1.43;;;13.90;99.90;;;;;;5114649;28;20443;-84
2023/05/26 00:10:14;;;;;;;3.03;2.00;;;13.80;99.90;;;;;;5114275;28;20967;-84
2023/05/26 00:12:41;;;;;;;8.10;2.10;;;13.80;99.90;;;;;;5114413;28;20447;-84
2023/05/26 00:15:09;;;;;;;9.43;1.33;;;13.80;99.90;;;;;;5114442;28;20478;-84
2023/05/26 00:17:37;;;;;;;3.50;1.70;;;13.80;99.90;;;;;;5114156;28;20487;-84
2023/05/26 00:20:07;;;;;;;2.27;1.37;;;13.70;99.90;;;;;;5114484;28;20444;-84
2023/05/26 00:22:34;;;;;;;3.93;2.23;;;13.70;99.90;;;;;;5114660;28;20483;-84
2023/05/26 00:25:01;;;;;;;2.10;1.67;;;13.70;99.90;;;;;;5114191;28;20536;-84
2023/05/26 00:27:28;;;;;;;3.50;2.00;;;13.70;99.90;;;;;;5114374;28;20455;-84
2023/05/26 00:29:58;;;;;;;3.60;1.20;;;13.70;99.90;;;;;;5114306;28;20525;-85
2023/05/26 00:32:24;;;;;;;3.20;1.93;;;13.70;99.90;;;;;;5114272;28;20506;-84
2023/05/26 00:34:53;;;;;;;7.90;2.70;;;13.70;99.90;;;;;;5114121;28;20463;-84
2023/05/26 00:37:20;;;;;;;5.20;2.10;;;13.70;99.90;;;;;;5114092;28;20480;-84
2023/05/26 00:39:47;;;;;;;1.60;1.20;;;13.60;99.90;;;;;;5114166;28;20806;-84
2023/05/26 00:42:13;;;;;;;4.43;1.87;;;13.70;99.90;;;;;;5113754;28;20444;-84
2023/05/26 00:44:40;;;;;;;3.77;1.50;;;13.70;99.90;;;;;;5113804;28;20486;-84
2023/05/26 00:47:07;;;;;;;2.77;1.40;;;13.70;99.90;;;;;;5113048;28;20479;-84
2023/05/26 00:49:34;;;;;;;1.77;1.40;;;13.70;99.90;;;;;;5114002;28;20455;-83
2023/05/26 00:52:03;;;;;;;1.40;1.20;;;13.80;99.90;;;;;;5113970;28;20455;-84
2023/05/26 00:54:30;;;;;;;3.10;1.30;;;13.80;99.90;;;;;;5114014;28;20476;-84
2023/05/26 00:56:58;;;;;;;3.37;2.00;;;13.80;99.90;;;;;;5113804;28;20484;-84
2023/05/26 00:59:25;;;;;;;2.77;1.70;;;13.80;99.90;;;;;;5113530;28;20943;-84
2023/05/26 01:01:52;;;;;;;3.10;1.60;;;13.80;99.90;;;;;;5113935;28;20451;-84
2023/05/26 01:04:20;;;;;;;1.97;1.17;;;13.90;99.90;;;;;;5114321;28;20475;-84
2023/05/26 01:06:47;;;;;;;5.50;2.00;;;13.80;99.90;;;;;;5113983;28;20440;-83
2023/05/26 01:09:16;;;;;;;4.97;2.50;;;13.80;99.90;;;;;;5114259;28;20814;-83
2023/05/26 01:11:46;;;;;;;2.50;1.60;;;13.80;99.90;;;;;;5113963;28;20447;-84
2023/05/26 01:14:21;;;;;;;6.30;2.37;;;13.80;99.90;;;;;;5114171;28;20459;-84
2023/05/26 01:16:56;;;;;;;2.97;1.97;;;13.80;99.90;;;;;;5113684;28;20442;-84
2023/05/26 01:19:52;;;;;;;3.60;1.80;;;13.80;99.90;;;;;;5113871;28;20918;-84
2023/05/26 01:22:23;;;;;;;4.70;2.10;;;13.80;99.90;;;;;;5113881;28;20436;-84
2023/05/26 01:25:00;;;;;;;2.33;1.30;;;13.80;99.90;;;;;;5114177;28;20472;-84
2023/05/26 01:27:42;;;;;;;4.07;1.27;;;13.70;99.90;;;;;;5113742;28;20483;-84
2023/05/26 01:30:11;;;;;;;3.83;1.63;;;13.70;99.90;;;;;;5113718;28;20431;-84
2023/05/26 01:32:38;;;;;;;4.60;2.13;;;13.70;99.90;;;;;;5113584;28;20439;-84
2023/05/26 01:35:06;;;;;;;5.17;1.53;;;13.70;99.90;;;;;;5113105;28;20537;-84
2023/05/26 01:37:33;;;;;;;2.67;1.33;;;13.70;99.90;;;;;;5113449;28;20485;-84
2023/05/26 01:39:59;;;;;;;1.60;1.37;;;13.60;99.90;;;;;;5113559;28;20450;-83
2023/05/26 01:42:30;;;;;;;5.13;1.47;;;13.60;99.90;;;;;;5113486;28;20454;-84
2023/05/26 01:45:03;;;;;;;3.07;1.63;;;13.60;99.90;;;;;;5113124;28;20464;-84
2023/05/26 01:47:32;;;;;;;1.63;1.53;;;13.50;99.90;;;;;;5113630;28;20436;-84
2023/05/26 01:50:02;;;;;;;2.20;1.63;;;13.50;99.90;;;;;;5113386;28;20454;-84
2023/05/26 01:52:28;;;;;;;2.83;1.70;;;13.50;99.90;;;;;;5113151;28;20459;-84
2023/05/26 01:54:58;;;;;;;4.23;2.00;;;13.50;99.90;;;;;;5113324;28;20470;-84
2023/05/26 01:57:27;;;;;;;3.80;2.17;;;13.40;99.90;;;;;;5113770;28;20482;-84
2023/05/26 01:59:53;;;;;;;1.90;1.63;;;13.40;99.90;;;;;;5116439;28;20455;-84
2023/05/26 02:02:20;;;;;;;7.87;1.73;;;13.40;99.90;;;;;;5116803;28;20942;-84
2023/05/26 02:04:48;;;;;;;1.63;1.47;;;13.40;99.90;;;;;;5116664;28;20467;-84
2023/05/26 02:07:15;;;;;;;1.50;1.37;;;13.40;99.90;;;;;;5116688;28;20451;-83
2023/05/26 02:09:42;;;;;;;2.33;1.57;;;13.40;99.90;;;;;;5117190;28;20446;-84
2023/05/26 02:12:09;;;;;;;7.03;1.87;;;13.40;99.90;;;;;;5116920;28;20447;-84
2023/05/26 02:14:35;;;;;;;2.73;1.57;;;13.40;99.90;;;;;;5116846;28;20870;-84
2023/05/26 02:17:03;;;;;;;2.10;1.63;;;13.40;99.90;;;;;;5117223;28;20475;-84
2023/05/26 02:19:30;;;;;;;1.60;1.30;;;13.40;99.90;;;;;;5117457;28;20432;-83
2023/05/26 02:21:58;;;;;;;2.60;1.63;;;13.50;99.90;;;;;;5116797;28;20447;-84
2023/05/26 02:24:25;;;;;;;4.00;1.20;;;13.40;99.90;;;;;;5116661;28;20468;-84
2023/05/26 02:26:52;;;;;;;1.63;1.50;;;13.50;99.90;;;;;;5116706;27;20442;-84
2023/05/26 02:29:18;;;;;;;3.13;1.77;;;13.40;99.90;;;;;;5116572;27;20444;-84
2023/05/26 02:31:45;;;;;;;1.50;1.20;;;13.40;99.90;;;;;;5116585;28;20446;-84
2023/05/26 02:34:12;;;;;;;8.13;2.17;;;13.40;99.90;;;;;;5116174;28;20471;-83
2023/05/26 02:36:39;;;;;;;3.60;1.30;;;13.40;99.90;;;;;;5116288;28;21059;-84
2023/05/26 02:39:07;;;;;;;5.93;1.50;;;13.50;99.90;;;;;;5116020;28;20467;-84
2023/05/26 02:41:34;;;;;;;6.10;1.67;;;13.40;99.90;;;;;;5116574;28;20447;-84
2023/05/26 02:44:00;;;;;;;1.50;1.23;;;13.40;99.90;;;;;;5116167;28;20455;-84
2023/05/26 02:46:27;;;;;;;5.53;2.50;;;13.40;99.90;;;;;;5116201;28;20444;-84
2023/05/26 02:48:54;;;;;;;2.63;1.07;;;13.40;99.90;;;;;;5116216;28;20446;-84
2023/05/26 02:51:21;;;;;;;11.93;2.40;;;13.30;99.90;;;;;;5116996;28;20447;-84
2023/05/26 02:53:47;;;;;;;2.30;1.20;;;13.40;99.90;;;;;;5116077;28;20455;-84
2023/05/26 02:56:15;;;;;;;2.30;1.47;;;13.40;99.90;;;;;;5116078;28;20825;-83
2023/05/26 02:58:42;;;;;;;4.43;2.30;;;13.40;99.90;;;;;;5115912;28;20479;-83
2023/05/26 03:01:09;;;;;;;6.60;2.47;;;13.30;99.90;;;;;;5116224;28;20440;-84
2023/05/26 03:03:36;;;;;;;1.80;1.70;;;13.30;99.90;;;;;;5115820;28;20448;-83
2023/05/26 03:06:03;;;;;;;1.90;1.57;;;13.30;99.90;;;;;;5115902;28;20464;-83
2023/05/26 03:08:30;;;;;;;5.90;1.67;;;13.20;99.90;;;;;;5115820;27;20439;-84
2023/05/26 03:10:57;;;;;;;1.73;1.30;;;13.20;99.90;;;;;;5114337;28;20452;-84
2023/05/26 03:13:25;;;;;;;4.10;2.30;;;13.20;99.90;;;;;;5115873;28;20466;-84
2023/05/26 03:15:52;;;;;;;1.73;1.60;;;13.20;99.90;;;;;;5115603;28;20491;-84
2023/05/26 03:18:18;;;;;;;3.40;1.40;;;13.20;99.90;;;;;;5115266;28;20498;-84
2023/05/26 03:20:46;;;;;;;3.23;1.47;;;13.20;99.90;;;;;;5115572;28;20440;-84
2023/05/26 03:23:14;;;;;;;2.90;1.73;;;13.20;99.90;;;;;;5115544;28;20526;-84
2023/05/26 03:25:40;;;;;;;2.60;1.60;;;13.20;99.90;;;;;;5115360;28;20951;-84
2023/05/26 03:28:07;;;;;;;4.17;1.93;;;13.20;99.90;;;;;;5115127;27;20448;-84
2023/05/26 03:30:35;;;;;;;2.70;1.60;;;13.20;99.90;;;;;;5115349;28;20452;-83
2023/05/26 03:33:02;;;;;;;4.57;2.10;;;13.20;99.90;;;;;;5115290;28;20439;-84
2023/05/26 03:35:29;;;;;;;1.80;1.33;;;13.20;99.90;;;;;;5114844;28;20971;-84
2023/05/26 03:37:56;;;;;;;3.00;1.80;;;13.20;99.90;;;;;;5115131;28;20479;-84
2023/05/26 03:40:22;;;;;;;6.20;2.17;;;13.20;99.90;;;;;;5114872;28;20447;-83
2023/05/26 03:42:49;;;;;;;5.70;2.30;;;13.20;99.90;;;;;;5115312;28;20446;-84
2023/05/26 03:45:16;;;;;;;5.83;1.80;;;13.20;99.90;;;;;;5114936;28;20486;-84
2023/05/26 03:47:44;;;;;;;3.23;2.00;;;13.20;99.90;;;;;;5114860;28;20436;-84
2023/05/26 03:50:11;;;;;;;8.40;1.83;;;13.20;99.90;;;;;;5115166;28;20443;-84
2023/05/26 03:52:38;;;;;;;1.90;1.20;;;13.20;99.90;;;;;;5114957;28;20461;-84
2023/05/26 03:55:09;;;;;;;1.83;1.10;;;13.20;99.90;;;;;;5114533;28;20868;-84
2023/05/26 03:57:36;;;;;;;3.23;1.67;;;13.10;99.90;;;;;;5114806;27;20435;-83
2023/05/26 04:00:05;;;;;;;4.93;2.10;;;13.20;99.90;;;;;;5114411;28;20957;-84
2023/05/26 04:02:32;;;;;;;3.07;1.77;;;13.20;99.90;;;;;;5114697;28;20440;-84
2023/05/26 04:05:00;;;;;;;2.13;1.67;;;13.20;99.90;;;;;;5114510;28;20471;-84
2023/05/26 04:07:27;;;;;;;3.53;1.80;;;13.20;99.90;;;;;;5114626;28;20444;-84
2023/05/26 04:09:54;;;;;;;3.33;1.57;;;13.20;99.90;;;;;;5114734;28;20458;-84
2023/05/26 04:12:20;;;;;;;2.53;1.67;;;13.30;99.90;;;;;;5114642;28;20447;-84
2023/05/26 04:14:47;;;;;;;3.23;1.70;;;13.30;99.90;;;;;;5114486;28;20464;-84
2023/05/26 04:17:14;;;;;;;4.60;2.27;;;13.30;99.90;;;;;;5114216;28;20872;-84
2023/05/26 04:19:41;;;;;;;5.77;1.63;;;13.30;99.90;;;;;;5114420;28;20478;-84
2023/05/26 04:22:09;;;;;;;4.47;1.70;;;13.30;99.90;;;;;;5114188;28;20447;-84
2023/05/26 04:24:36;;;;;;;2.87;1.57;;;13.30;99.90;;;;;;5114241;27;20479;-84
2023/05/26 04:27:02;;;;;;;5.50;1.67;;;13.30;99.90;;;;;;5114042;28;20452;-84
2023/05/26 04:29:29;;;;;;;4.83;2.00;;;13.30;99.90;;;;;;5115040;28;20431;-84
2023/05/26 04:31:56;;;;;;;3.90;2.17;;;13.30;99.90;;;;;;5114245;28;20448;-83
2023/05/26 04:34:23;;;;;;;3.27;2.43;;;13.30;99.90;;;;;;5114198;28;20462;-84
2023/05/26 04:36:50;;;;;;;2.80;1.83;;;13.30;99.90;;;;;;5114354;28;20451;-84
2023/05/26 04:39:18;;;;;;;3.37;1.83;;;13.30;99.90;;;;;;5114354;28;20494;-84
2023/05/26 04:41:46;;;;;;;4.27;1.87;;;13.40;99.90;;;;;;5113786;28;20927;-84
2023/05/26 04:44:13;;;;;;;4.53;2.20;;;13.40;99.90;;;;;;5113972;28;20566;-84
2023/05/26 04:46:40;;;;;;;2.33;1.60;;;13.50;99.90;;;;;;5114020;28;20444;-84
2023/05/26 04:49:07;;;;;;;3.47;1.77;;;13.60;99.90;;;;;;5114848;28;20446;-84
2023/05/26 04:51:35;;;;;;;3.30;2.00;;;13.50;99.90;;;;;;5113759;28;20902;-84
2023/05/26 04:54:01;;;;;;;3.37;2.10;;;13.60;99.90;;;;;;5114153;28;20474;-84
2023/05/26 04:56:29;;;;;;;2.27;1.60;;;13.70;99.90;;;;;;5113924;28;20448;-84
2023/05/26 04:58:57;;;;;;;7.43;2.57;;;13.70;99.90;;;;;;5113865;28;20484;-84
2023/05/26 05:01:23;;;;;;;5.97;2.20;;;13.80;99.90;;;;;;5113853;28;20878;-84
2023/05/26 05:03:50;;;;;;;8.10;2.30;;;13.90;99.90;;;;;;5113445;28;20951;-84
2023/05/26 05:06:17;;;;;;;6.27;2.77;;;14.00;99.90;;;;;;5114042;28;20439;-85
2023/05/26 05:08:43;;;;;;;3.77;2.30;;;14.10;99.90;;;;;;5113911;28;20444;-84
2023/05/26 05:11:12;;;;;;;2.90;1.80;;;14.20;99.90;;;;;;5113533;28;20803;-85
2023/05/26 05:13:40;;;;;;;2.03;1.93;;;14.20;99.90;;;;;;5113388;28;20958;-84
2023/05/26 05:16:06;;;;;;;3.20;2.47;;;14.20;99.90;;;;;;5113488;28;20939;-84
2023/05/26 05:18:33;;;;;;;4.57;2.50;;;14.30;99.90;;;;;;5113347;28;20487;-84
2023/05/26 05:21:00;;;;;;;5.90;2.53;;;14.30;99.90;;;;;;5113778;28;20443;-84
2023/05/26 05:23:26;;;;;;;4.40;1.87;;;14.30;99.90;;;;;;5113615;28;20447;-84
2023/05/26 05:25:54;;;;;;;4.90;2.00;;;14.30;99.90;;;;;;5113574;28;20475;-85
2023/05/26 05:28:20;;;;;;;3.30;1.97;;;14.40;99.90;;;;;;5113502;28;20439;-84
2023/05/26 05:30:48;;;;;;;3.10;1.87;;;14.40;99.90;;;;;;5113361;28;20432;-85
2023/05/26 05:33:15;;;;;;;5.83;3.33;;;14.50;99.90;;;;;;5113873;28;20952;-85
2023/05/26 05:35:42;;;;;;;3.97;2.53;;;14.50;99.90;;;;;;5117554;27;20471;-85
2023/05/26 05:38:08;;;;;;;2.40;2.03;;;14.60;99.90;;;;;;5117122;28;20966;-84
2023/05/26 05:40:35;;;;;;;2.57;2.17;;;14.50;99.90;;;;;;5117497;28;20455;-85
2023/05/26 05:43:02;;;;;;;3.70;2.60;;;14.70;99.90;;;;;;5117529;27;20440;-84
2023/05/26 05:45:29;;;;;;;2.63;1.77;;;14.70;99.90;;;;;;5117433;28;20467;-85
2023/05/26 05:47:57;;;;;;;6.00;2.77;;;14.70;99.90;;;;;;5117383;28;20456;-84
2023/05/26 05:50:24;;;;;;;5.90;3.10;;;14.80;99.90;;;;;;5117336;28;20446;-84
2023/05/26 05:52:51;;;;;;;6.87;3.30;;;14.80;99.90;;;;;;5117199;28;20431;-84
2023/05/26 05:55:17;;;;;;;4.77;3.23;;;14.90;99.90;;;;;;5117233;28;20490;-84
2023/05/26 05:57:44;;;;;;;3.40;2.43;;;15.10;99.90;;;;;;5117222;28;20803;-85
2023/05/26 06:00:12;;;;;;;6.07;2.67;;;15.20;99.90;;;;;;5117025;28;20471;-85
2023/05/26 06:02:39;;;;;;;2.83;2.30;;;15.30;99.90;;;;;;5117078;28;20444;-85
2023/05/26 06:05:07;;;;;;;8.43;2.30;;;15.50;99.90;;;;;;5116975;28;20467;-85
2023/05/26 06:07:34;;;;;;;4.77;3.60;;;15.60;99.90;;;;;;5116888;28;20458;-85
2023/05/26 06:10:01;;;;;;;3.47;2.50;;;15.80;99.90;;;;;;5117030;28;20439;-84
2023/05/26 06:12:28;;;;;;;3.20;2.07;;;15.90;99.90;;;;;;5116903;28;20455;-84
2023/05/26 06:14:55;;;;;;;4.93;2.53;;;16.00;99.90;;;;;;5116903;28;20524;-84
2023/05/26 06:17:21;;;;;;;6.93;2.70;;;16.20;99.90;;;;;;5116737;28;20531;-84
2023/05/26 06:19:48;;;;;;;3.00;2.37;;;16.40;99.90;;;;;;5116784;28;20854;-85
2023/05/26 06:22:16;;;;;;;4.63;2.50;;;16.60;99.90;;;;;;5116639;28;20981;-85
2023/05/26 06:24:43;;;;;;;3.30;3.00;;;16.80;99.90;;;;;;5116320;28;20470;-82
2023/05/26 06:27:10;;;;;;;3.67;2.30;;;17.10;99.90;;;;;;5116539;28;20458;-85
2023/05/26 06:29:37;;;;;;;7.00;2.73;;;17.40;99.90;;;;;;5116717;27;20443;-85
2023/05/26 06:32:04;;;;;;;5.50;2.83;;;17.60;99.90;;;;;;5116785;28;20954;-88
2023/05/26 06:34:31;;;;;;;3.93;2.23;;;18.00;99.90;;;;;;5116844;28;20493;-87
2023/05/26 06:36:58;;;;;;;2.70;2.27;;;18.30;99.90;;;;;;5116888;28;20479;-87
2023/05/26 06:39:26;;;;;;;4.47;2.70;;;18.60;99.90;;;;;;5117002;28;20787;-87
2023/05/26 06:41:53;;;;;;;4.60;2.60;;;18.90;99.90;;;;;;5122132;28;20690;-88
2023/05/26 06:44:19;;;;;;;2.67;1.87;;;19.10;99.90;;;;;;5117220;28;20478;-87
2023/05/26 06:46:46;;;;;;;4.07;2.70;;;19.20;99.90;;;;;;5116642;28;20454;-88
2023/05/26 06:49:13;;;;;;;5.83;2.17;;;19.40;99.90;;;;;;5117113;28;20837;-87
2023/05/26 06:51:40;;;;;;;2.87;2.60;;;19.50;99.90;;;;;;5116940;28;20447;-87
2023/05/26 06:54:07;;;;;;;4.97;2.37;;;19.60;99.90;;;;;;5116762;28;20459;-88
2023/05/26 06:56:35;;;;;;;3.23;2.93;;;19.80;99.90;;;;;;5116353;28;20462;-88
2023/05/26 06:59:02;;;;;;;5.17;3.13;;;19.90;99.90;;;;;;5116819;28;20479;-87
2023/05/26 07:01:29;;;;;;;3.00;2.13;;;19.90;99.90;;;;;;5116917;28;20443;-87
2023/05/26 07:03:56;;;;;;;4.10;2.37;;;20.10;99.90;;;;;;5116402;28;20462;-88
2023/05/26 07:06:22;;;;;;;4.13;2.90;;;20.20;99.90;;;;;;5116598;28;20448;-87
2023/05/26 07:08:49;;;;;;;3.30;2.50;;;20.40;99.90;;;;;;5115878;28;20534;-87
2023/05/26 07:11:16;;;;;;;3.13;2.60;;;20.50;99.90;;;;;;5116345;28;20445;-88
2023/05/26 07:13:46;;;;;;;7.87;3.30;;;20.70;99.90;;;;;;5116099;28;20548;-87
2023/05/26 07:16:13;;;;;;;2.20;2.00;;;20.90;99.90;;;;;;5115682;28;20427;-85
2023/05/26 07:18:40;;;;;;;4.00;2.93;;;21.20;99.90;;;;;;5115386;28;20479;-85
2023/05/26 07:21:06;;;;;;;6.40;3.20;;;21.40;99.90;;;;;;5115936;28;20453;-86
2023/05/26 07:23:33;;;;;;;5.07;2.63;;;21.60;99.90;;;;;;5115697;28;20443;-86
2023/05/26 07:26:00;;;;;;;5.23;2.70;;;21.90;99.90;;;;;;5116039;28;20200;-86
2023/05/26 07:28:27;;;;;;;7.53;3.37;;;22.20;99.90;;;;;;5116111;28;20447;-85
2023/05/26 07:30:55;;;;;;;4.13;2.53;;;22.60;99.90;;;;;;5115405;28;20205;-85
2023/05/26 07:33:22;;;;;;;4.18;2.65;;;23.20;99.90;;;;;;5115430;27;20197;-85
2023/05/26 07:35:49;;;;;;;7.30;3.15;;;23.50;99.90;;;;;;5115299;28;20593;-86
2023/05/26 07:38:17;;;;;;;8.25;2.33;;;24.10;99.90;;;;;;5115564;28;20549;-86
2023/05/26 07:40:44;;;;;;;3.58;2.58;;;24.80;99.50;;;;;;5115407;28;20225;-86
2023/05/26 07:43:12;;;;;;;3.05;2.42;;;25.80;97.20;;;;;;5115646;28;20250;-86
2023/05/26 07:45:41;;;;;;;2.25;2.05;;;27.00;94.30;;;;;;5115276;28;20781;-86
2023/05/26 07:48:09;;;;;;;5.32;1.80;;;28.30;90.00;;;;;;5115364;27;20200;-87
2023/05/26 07:50:36;;;;;;;6.28;2.60;;;29.50;83.40;;;;;;5115620;28;20229;-86
2023/05/26 07:53:03;;;;;;;4.50;2.47;;;30.70;77.70;;;;;;5115397;28;20186;-87
2023/05/26 07:55:30;;;;;;;3.72;2.70;;;31.90;72.40;;;;;;5115106;28;20225;-86
2023/05/26 07:57:57;;;;;;;3.90;2.28;;;33.00;66.40;;;;;;5114838;28;20197;-86
2023/05/26 08:00:23;;;;;;;2.47;1.80;;;33.80;62.10;;;;;;5114799;28;20599;-86
2023/05/26 08:02:51;;;;;;;1.85;1.75;;;34.10;58.40;;;;;;5114879;28;20199;-87
2023/05/26 08:05:19;;;;;;;1.90;1.80;;;34.20;57.40;;;;;;5115250;28;20220;-87
2023/05/26 08:07:46;;;;;;;2.25;2.05;;;34.00;57.10;;;;;;5115260;28;20201;-86
2023/05/26 08:10:13;;;;;;;4.43;2.22;;;33.50;55.70;;;;;;5115148;28;20197;-87
2023/05/26 08:12:40;;;;;;;3.33;2.58;;;32.60;56.50;;;;;;5115050;28;20553;-86
2023/05/26 08:15:14;;;;;;;5.80;2.50;;;31.40;57.10;;;;;;5114712;28;20230;-86
2023/05/26 08:17:40;;;;;;;5.35;1.90;;;30.10;59.10;;;;;;5114323;28;20765;-86
2023/05/26 08:20:09;;;;;;;3.70;2.30;;;29.20;62.00;;;;;;5114661;28;20227;-87
2023/05/26 08:22:37;;;;;;;2.70;1.90;;;28.50;63.30;;;;;;5114632;28;20190;-86
2023/05/26 08:25:05;;;;;;;1.55;1.45;;;27.90;64.60;;;;;;5114866;28;20236;-86
2023/05/26 08:27:32;;;;;;;2.40;2.17;;;27.60;66.40;;;;;;5115223;28;20193;-87
2023/05/26 08:29:59;;;;;;;3.53;2.03;;;27.40;66.70;;;;;;5114476;28;20661;-86
2023/05/26 08:32:25;;;;;;;2.75;2.55;;;27.10;67.80;;;;;;5115194;28;20209;-87
2023/05/26 08:34:52;;;;;;;1.90;1.63;;;27.10;67.80;;;;;;5114638;28;20313;-87
2023/05/26 08:37:19;;;;;;;2.20;2.00;;;27.00;68.00;;;;;;5115280;28;20209;-86
2023/05/26 08:39:47;;;;;;;2.65;2.35;;;26.60;68.50;;;;;;5115081;28;20585;-87
2023/05/26 08:42:17;;;;;;;2.22;2.10;;;26.50;69.80;;;;;;5114654;28;20209;-87
2023/05/26 08:44:44;;;;;;;5.18;2.65;;;26.40;70.10;;;;;;5115023;28;20223;-87
2023/05/26 08:47:12;;;;;;;3.58;2.80;;;26.30;69.70;;;;;;5115011;28;20212;-87
2023/05/26 08:49:46;;;;;;;2.55;2.35;;;26.00;71.70;;;;;;5114829;28;20205;-85
2023/05/26 08:52:16;;;;;;;2.58;2.13;;;25.40;72.20;;;;;;5115196;28;20196;-86
2023/05/26 08:54:44;;;;;;;4.20;2.20;;;25.10;73.60;;;;;;5114759;28;20619;-86
2023/05/26 08:57:13;;;;;;;2.08;1.98;;;24.90;73.70;;;;;;5115162;28;20284;-86
2023/05/26 08:59:40;;;;;;;3.03;2.20;;;24.80;74.80;;;;;;5115225;28;20209;-86
2023/05/26 09:02:07;;;;;;;5.30;2.45;;;25.00;72.80;;;;;;5113954;28;20209;-85
2023/05/26 09:04:35;;;;;;;4.00;2.30;;;25.00;74.90;;;;;;5113423;28;20219;-85
2023/05/26 09:07:01;;;;;;;5.22;2.22;;;24.90;75.50;;;;;;5113874;28;20205;-84
2023/05/26 09:09:30;;;;;;;3.22;2.40;;;24.90;76.00;;;;;;5116373;28;20567;-85
2023/05/26 09:11:57;;;;;;;3.80;2.30;;;25.10;73.30;;;;;;5118070;28;20564;-85
2023/05/26 09:14:25;;;;;;;9.50;3.28;;;25.10;74.00;;;;;;5117996;28;20220;-85
2023/05/26 09:16:54;;;;;;;2.30;2.10;;;24.80;73.80;;;;;;5117959;28;20190;-85
2023/05/26 09:19:21;;;;;;;3.03;2.58;;;24.60;73.70;;;;;;5117991;28;20189;-86
2023/05/26 09:21:49;;;;;;;4.13;2.00;;;24.10;74.30;;;;;;5117947;28;20571;-85
2023/05/26 09:24:18;;;;;;;3.45;2.55;;;24.00;75.90;;;;;;5118038;28;20227;-85
2023/05/26 09:26:47;;;;;;;2.55;2.35;;;23.90;76.00;;;;;;5117960;28;20205;-86
2023/05/26 09:29:14;;;;;;;3.03;2.63;;;23.90;78.40;;;;;;5117788;28;20212;-87
2023/05/26 09:31:43;;;;;;;3.58;2.50;;;23.80;77.50;;;;;;5117597;28;20200;-85
2023/05/26 09:34:11;;;;;;;7.00;2.13;;;23.70;77.90;;;;;;5117346;28;20722;-87
2023/05/26 09:36:39;;;;;;;1.75;1.65;;;23.70;78.10;;;;;;5117853;28;20196;-85
2023/05/26 09:39:09;;;;;;;4.77;2.33;;;23.70;77.00;;;;;;5117662;28;20201;-84
2023/05/26 09:41:37;;;;;;;3.80;2.50;;;23.60;78.70;;;;;;5118814;28;20207;-86
2023/05/26 09:44:11;;;;;;;3.13;2.72;;;23.70;77.00;;;;;;5117518;28;20225;-86
2023/05/26 09:46:39;;;;;;;3.37;2.13;;;23.80;75.00;;;;;;5117394;28;20672;-85
2023/05/26 09:49:12;;;;;;;2.60;1.77;;;23.80;75.60;;;;;;5117229;28;20229;-86
2023/05/26 09:51:39;;;;;;;4.83;2.53;;;23.70;78.20;;;;;;5117421;28;20251;-85
2023/05/26 09:54:08;;;;;;;3.80;2.05;;;23.80;79.70;;;;;;5117312;28;20229;-86
2023/05/26 09:56:37;;;;;;;3.85;2.90;;;24.00;77.20;;;;;;5117864;28;20213;-85
2023/05/26 09:59:05;;;;;;;3.30;2.70;;;24.10;78.10;;;;;;5117652;28;20198;-85
2023/05/26 10:01:35;;;;;;;4.10;3.13;;;24.20;77.80;;;;;;5117144;27;20216;-85
2023/05/26 10:04:03;;;;;;;2.63;2.42;;;24.30;78.80;;;;;;5116868;28;20228;-84
2023/05/26 10:06:32;;;;;;;3.03;2.20;;;24.20;80.00;;;;;;5117130;28;20201;-84
2023/05/26 10:09:00;;;;;;;3.13;2.20;;;24.30;78.50;;;;;;5117311;27;20204;-84
2023/05/26 10:11:29;;;;;;;2.85;2.00;;;24.30;77.00;;;;;;5117064;28;20564;-86
2023/05/26 10:13:56;;;;;;;2.17;2.03;;;24.20;75.00;;;;;;5116658;28;20220;-85
2023/05/26 10:16:23;;;;;;;2.20;2.00;;;24.10;75.40;;;;;;5117088;28;20216;-85
2023/05/26 10:18:50;;;;;;;2.75;2.13;;;24.10;77.80;;;;;;5116147;28;20594;-84
2023/05/26 10:21:21;;;;;;;2.75;2.20;;;24.10;80.00;;;;;;5116939;28;20225;-85
2023/05/26 10:23:57;;;;;;;3.08;2.72;;;24.20;75.10;;;;;;5116422;28;20188;-84
2023/05/26 10:26:30;;;;;;;2.70;2.45;;;24.20;75.20;;;;;;5116587;28;20641;-85
2023/05/26 10:29:03;;;;;;;1.92;1.83;;;24.10;74.00;;;;;;5117519;28;20212;-85
2023/05/26 10:31:30;;;;;;;2.38;2.17;;;24.00;76.90;;;;;;5116436;28;20181;-83
2023/05/26 10:33:57;;;;;;;2.97;2.42;;;24.00;77.50;;;;;;5116582;28;20225;-84
2023/05/26 10:36:24;;;;;;;2.53;2.05;;;24.10;78.10;;;;;;5116671;28;20193;-84
2023/05/26 10:38:55;;;;;;;7.15;3.17;;;24.10;78.40;;;;;;5116379;28;20200;-84
2023/05/26 10:41:32;;;;;;;5.72;2.28;;;24.20;77.20;;;;;;5116189;28;20245;-84
2023/05/26 10:44:03;;;;;;;4.68;2.95;;;24.20;78.00;;;;;;5116414;28;20695;-85
2023/05/26 10:46:38;;;;;;;3.97;2.80;;;24.20;78.30;;;;;;5116839;28;20205;-84
2023/05/26 10:49:05;;;;;;;2.55;1.70;;;24.20;79.40;;;;;;5116590;28;20204;-82
2023/05/26 10:51:32;;;;;;;10.80;2.78;;;24.10;80.60;;;;;;5116303;28;20197;-85
2023/05/26 10:54:16;;;;;;;2.70;2.50;;;24.20;78.10;;;;;;5116170;28;20270;-84
2023/05/26 10:56:44;;;;;;;3.42;2.30;;;24.30;77.10;;;;;;5116010;28;20189;-85
2023/05/26 10:59:21;;;;;;;4.43;2.38;;;24.20;78.00;;;;;;5116621;28;20540;-83
2023/05/26 11:01:53;;;;;;;6.15;2.90;;;24.20;78.60;;;;;;5116293;28;20234;-85
2023/05/26 11:04:21;;;;;;;4.25;2.63;;;24.60;77.70;;;;;;5116204;28;20213;-84
2023/05/26 11:06:50;;;;;;;3.67;2.67;;;25.00;76.10;;;;;;5115790;28;20258;-85
2023/05/26 11:09:21;;;;;;;3.03;2.72;;;25.10;76.80;;;;;;5115822;28;20211;-85
2023/05/26 11:11:53;;;;;;;4.18;2.88;;;24.90;76.30;;;;;;5115878;28;20188;-85
2023/05/26 11:14:24;;;;;;;2.17;1.88;;;24.70;78.40;;;;;;5115315;28;20228;-85
2023/05/26 11:16:52;;;;;;;4.28;2.50;;;24.40;77.60;;;;;;5115191;28;20665;-83
2023/05/26 11:19:28;;;;;;;5.18;2.65;;;24.10;79.50;;;;;;5115353;28;20637;-84
2023/05/26 11:21:55;;;;;;;4.68;3.13;;;23.90;80.00;;;;;;5115485;28;20209;-84
2023/05/26 11:24:24;;;;;;;5.32;3.05;;;23.80;79.20;;;;;;5115630;28;20227;-83
2023/05/26 11:26:51;;;;;;;7.13;3.00;;;23.70;78.80;;;;;;5115673;28;20265;-84
2023/05/26 11:29:18;;;;;;;3.33;2.95;;;23.60;79.40;;;;;;5115496;28;20216;-84
2023/05/26 11:31:48;;;;;;;5.97;2.92;;;23.50;81.60;;;;;;5114878;28;20201;-84
2023/05/26 11:34:15;;;;;;;4.50;2.40;;;23.50;82.60;;;;;;5115571;28;20225;-84
2023/05/26 11:36:46;;;;;;;4.57;2.90;;;23.50;81.80;;;;;;5115547;28;20189;-86
2023/05/26 11:39:13;;;;;;;2.85;2.20;;;23.50;81.40;;;;;;5116462;28;20185;-88
2023/05/26 11:41:42;;;;;;;4.78;2.90;;;23.50;82.30;;;;;;5116648;28;20603;-87
2023/05/26 11:44:09;;;;;;;2.97;2.22;;;23.50;80.80;;;;;;5116117;28;20584;-87
2023/05/26 11:46:38;;;;;;;3.80;2.60;;;23.40;82.50;;;;;;5116234;28;20220;-87
2023/05/26 11:49:05;;;;;;;2.90;2.50;;;23.40;82.80;;;;;;5115498;28;20206;-87
2023/05/26 11:51:33;;;;;;;3.10;2.30;;;23.30;82.80;;;;;;5115798;28;20208;-87
2023/05/26 11:54:00;;;;;;;4.80;3.30;;;23.30;82.40;;;;;;5116056;28;20587;-87
2023/05/26 11:56:33;;;;;;;2.50;2.00;;;23.30;82.50;;;;;;5115996;28;20209;-87
2023/05/26 11:59:02;;;;;;;3.50;2.40;;;23.30;83.00;;;;;;5116138;28;20181;-88
2023/05/26 12:01:31;;;;;;;3.80;2.60;;;23.40;80.20;;;;;;5115613;28;20225;-88
2023/05/26 12:03:59;;;;;;;3.97;2.20;;;23.40;79.40;;;;;;5115578;28;20224;-88
2023/05/26 12:06:28;;;;;;;3.40;2.90;;;23.30;82.40;;;;;;5115996;28;20200;-88
2023/05/26 12:08:57;;;;;;;3.93;2.73;;;23.40;81.10;;;;;;5117509;28;20212;-88
2023/05/26 12:11:30;;;;;;;3.30;2.37;;;23.30;80.70;;;;;;5115590;28;20194;-88
2023/05/26 12:13:59;;;;;;;4.83;3.43;;;23.30;81.90;;;;;;5116394;28;20209;-88
2023/05/26 12:16:30;;;;;;;3.00;2.70;;;23.30;79.90;;;;;;5115960;28;20201;-88
2023/05/26 12:19:00;;;;;;;4.57;2.30;;;23.30;82.00;;;;;;5116871;28;20743;-88
2023/05/26 12:21:43;;;;;;;5.40;3.00;;;23.20;82.00;;;;;;5113810;27;21080;-87
2023/05/26 12:24:11;;;;;;;4.57;2.17;;;23.20;83.80;;;;;;5116286;28;20463;-88
2023/05/26 12:26:38;;;;;;;3.63;2.33;;;23.20;80.10;;;;;;5117020;28;20205;-87
2023/05/26 12:29:12;;;;;;;5.35;2.53;;;23.10;81.30;;;;;;5116853;28;20204;-88
2023/05/26 12:31:44;;;;;;;3.10;1.87;;;23.00;81.70;;;;;;5115239;28;20212;-88
2023/05/26 12:34:13;;;;;;;2.73;2.10;;;23.00;82.50;;;;;;5115480;28;20229;-88
2023/05/26 12:36:42;;;;;;;1.93;1.83;;;23.00;82.70;;;;;;5114138;28;20223;-88
2023/05/26 12:39:09;;;;;;;2.87;2.63;;;23.00;80.80;;;;;;5116107;28;20262;-88
2023/05/26 12:41:36;;;;;;;2.87;2.00;;;22.80;81.20;;;;;;5114553;28;20582;-88
2023/05/26 12:44:03;;;;;;;4.93;2.30;;;22.70;83.60;;;;;;5115248;28;20450;-88
2023/05/26 12:46:30;;;;;;;2.63;1.83;;;22.60;82.60;;;;;;5117866;28;20208;-86
2023/05/26 12:48:58;;;;;;;3.00;2.73;;;22.60;83.10;;;;;;5119426;28;20205;-89
2023/05/26 12:51:25;;;;;;;2.73;2.53;;;22.70;81.20;;;;;;5123944;28;20231;-90